createdAt,value
2018-11-03T00:00:57.548Z,5.87
2018-11-03T00:03:27.320Z,5.53
2018-11-03T00:05:56.143Z,6.20
2018-11-03T00:08:24.699Z,5.73
2018-11-03T00:10:53.127Z,5.80
2018-11-03T00:13:21.532Z,6.07
2018-11-03T00:15:50.092Z,5.90
2018-11-03T00:18:18.599Z,6.10
2018-11-03T00:20:47.022Z,6.37
2018-11-03T00:23:15.418Z,6.07
2018-11-03T00:25:43.859Z,5.70
2018-11-03T00:28:12.333Z,5.47
2018-11-03T00:30:40.762Z,5.60
2018-11-03T00:33:09.191Z,5.03
2018-11-03T00:35:37.733Z,4.70
2018-11-03T00:38:06.464Z,5.67
2018-11-03T00:40:34.926Z,4.90
2018-11-03T00:43:03.346Z,4.47
2018-11-03T00:45:31.738Z,5.10
2018-11-03T00:48:00.143Z,4.90
2018-11-03T00:50:28.580Z,5.30
2018-11-03T00:52:57.091Z,5.17
2018-11-03T00:55:25.520Z,5.27
2018-11-03T00:57:53.945Z,4.83
2018-11-03T01:00:22.350Z,4.70
2018-11-03T01:02:50.935Z,4.90
2018-11-03T01:05:19.355Z,5.27
2018-11-03T01:07:48.060Z,5.57
2018-11-03T01:10:17.370Z,4.87
2018-11-03T01:12:45.854Z,5.07
2018-11-03T01:15:15.450Z,5.27
2018-11-03T01:17:43.897Z,5.33
2018-11-03T01:20:13.868Z,5.37
2018-11-03T01:22:42.307Z,4.70
2018-11-03T01:25:11.076Z,4.90
2018-11-03T01:27:39.655Z,4.80
2018-11-03T01:30:12.321Z,5.33
2018-11-03T01:32:40.868Z,5.63
2018-11-03T01:35:09.750Z,4.53
2018-11-03T01:37:39.365Z,4.90
2018-11-03T01:40:08.923Z,4.70
2018-11-03T01:42:37.475Z,5.33
2018-11-03T01:45:06.122Z,5.20
2018-11-03T01:47:34.550Z,5.23
2018-11-03T01:50:03.029Z,5.23
2018-11-03T01:52:31.409Z,5.30
2018-11-03T01:54:59.804Z,5.47
2018-11-03T01:57:28.350Z,5.67
2018-11-03T01:59:57.091Z,5.20
2018-11-03T02:02:25.488Z,5.27
2018-11-03T02:04:53.889Z,5.53
2018-11-03T02:07:22.291Z,5.77
2018-11-03T02:09:50.637Z,5.60
2018-11-03T02:12:19.051Z,5.10
2018-11-03T02:14:47.454Z,5.63
2018-11-03T02:17:16.161Z,5.53
2018-11-03T02:19:44.599Z,5.00
2018-11-03T02:22:13.006Z,5.23
2018-11-03T02:24:41.509Z,5.07
2018-11-03T02:27:09.899Z,5.30
2018-11-03T02:29:38.292Z,4.67
2018-11-03T02:32:06.686Z,5.10
2018-11-03T02:34:35.169Z,4.97
2018-11-03T02:37:03.610Z,5.53
2018-11-03T02:39:32.035Z,5.43
2018-11-03T02:42:00.475Z,5.80
2018-11-03T02:44:28.871Z,5.60
2018-11-03T02:46:57.333Z,5.20
2018-11-03T02:49:25.732Z,5.30
2018-11-03T02:51:54.146Z,5.60
2018-11-03T02:54:22.860Z,6.23
2018-11-03T02:56:51.248Z,5.70
2018-11-03T02:59:19.864Z,5.40
2018-11-03T03:01:48.284Z,5.57
2018-11-03T03:04:16.684Z,5.83
2018-11-03T03:06:45.074Z,6.63
2018-11-03T03:09:13.459Z,5.60
2018-11-03T03:11:41.852Z,6.43
2018-11-03T03:14:10.307Z,6.53
2018-11-03T03:16:38.682Z,6.10
2018-11-03T03:19:07.096Z,6.47
2018-11-03T03:21:35.531Z,6.73
2018-11-03T03:24:04.103Z,6.50
2018-11-03T03:26:32.739Z,7.30
2018-11-03T03:29:01.275Z,6.77
2018-11-03T03:31:29.592Z,6.20
2018-11-03T03:33:58.019Z,6.23
2018-11-03T03:36:26.441Z,6.53
2018-11-03T03:38:54.834Z,6.20
2018-11-03T03:41:23.255Z,5.40
2018-11-03T03:43:51.669Z,5.90
2018-11-03T03:46:20.296Z,5.87
2018-11-03T03:48:48.695Z,5.07
2018-11-03T03:51:17.073Z,5.30
2018-11-03T03:53:45.524Z,5.43
2018-11-03T03:56:14.073Z,5.57
2018-11-03T03:58:42.461Z,4.93
2018-11-03T04:01:10.827Z,5.03
2018-11-03T04:03:39.355Z,5.30
2018-11-03T04:06:07.774Z,5.13
2018-11-03T04:08:36.191Z,4.73
2018-11-03T04:11:05.016Z,5.30
2018-11-03T04:13:33.406Z,5.10
2018-11-03T04:16:02.047Z,5.00
2018-11-03T04:18:30.578Z,4.63
2018-11-03T04:20:58.995Z,5.30
2018-11-03T04:23:27.417Z,4.90
2018-11-03T04:25:55.887Z,4.77
2018-11-03T04:28:24.304Z,5.23
2018-11-03T04:30:52.734Z,5.57
2018-11-03T04:33:21.134Z,5.03
2018-11-03T04:35:49.656Z,5.43
2018-11-03T04:38:18.076Z,5.33
2018-11-03T04:40:46.477Z,5.03
2018-11-03T04:43:14.879Z,5.43
2018-11-03T04:45:43.281Z,5.17
2018-11-03T04:48:11.671Z,5.03
2018-11-03T04:50:40.045Z,5.60
2018-11-03T04:53:08.500Z,4.80
2018-11-03T04:55:36.871Z,5.30
2018-11-03T04:58:05.489Z,5.00
2018-11-03T05:00:33.870Z,5.57
2018-11-03T05:03:02.267Z,5.50
2018-11-03T05:05:30.701Z,5.10
2018-11-03T05:07:59.098Z,5.33
2018-11-03T05:10:27.600Z,4.93
2018-11-03T05:12:56.083Z,5.73
2018-11-03T05:15:24.483Z,5.40
2018-11-03T05:17:52.909Z,5.00
2018-11-03T05:20:21.640Z,5.50
2018-11-03T05:22:50.032Z,5.37
2018-11-03T05:25:18.468Z,6.10
2018-11-03T05:27:46.886Z,5.60
2018-11-03T05:30:15.380Z,5.57
2018-11-03T05:32:43.790Z,5.77
2018-11-03T05:35:12.218Z,5.60
2018-11-03T05:37:40.705Z,5.13
2018-11-03T05:40:09.155Z,5.63
2018-11-03T05:42:37.639Z,5.73
2018-11-03T05:45:06.115Z,5.90
2018-11-03T05:47:34.574Z,6.10
2018-11-03T05:50:02.936Z,5.97
2018-11-03T05:52:31.341Z,6.20
2018-11-03T05:54:59.715Z,8.20
2018-11-03T05:57:28.208Z,7.23
2018-11-03T05:59:56.595Z,6.53
2018-11-03T06:02:25.139Z,6.43
2018-11-03T06:04:53.537Z,6.73
2018-11-03T06:07:21.939Z,7.57
2018-11-03T06:09:50.324Z,8.63
2018-11-03T06:12:18.915Z,8.60
2018-11-03T06:14:47.338Z,9.67
2018-11-03T06:17:15.729Z,10.33
2018-11-03T06:19:44.098Z,9.87
2018-11-03T06:22:12.493Z,10.50
2018-11-03T06:24:40.856Z,10.70
2018-11-03T06:27:09.281Z,10.30
2018-11-03T06:29:37.701Z,10.93
2018-11-03T06:32:06.527Z,9.80
2018-11-03T06:34:34.975Z,10.70
2018-11-03T06:37:03.407Z,10.07
2018-11-03T06:39:31.889Z,15.13
2018-11-03T06:42:00.375Z,11.43
2018-11-03T06:44:28.933Z,10.50
2018-11-03T06:46:57.440Z,9.83
2018-11-03T06:49:25.924Z,10.30
2018-11-03T06:51:54.377Z,10.13
2018-11-03T06:54:22.795Z,10.53
2018-11-03T06:56:51.226Z,10.73
2018-11-03T06:59:20.008Z,10.90
2018-11-03T07:01:48.570Z,11.30
2018-11-03T07:04:17.378Z,11.17
2018-11-03T07:06:45.868Z,12.00
2018-11-03T07:09:14.836Z,10.40
2018-11-03T07:11:44.624Z,10.13
2018-11-03T07:14:15.623Z,10.47
2018-11-03T07:16:44.535Z,10.73
2018-11-03T07:19:12.927Z,11.00
2018-11-03T07:21:41.417Z,10.90
2018-11-03T07:24:09.803Z,10.43
2018-11-03T07:26:39.242Z,10.20
2018-11-03T07:29:08.230Z,13.07
2018-11-03T07:31:36.635Z,15.63
2018-11-03T07:34:05.365Z,12.70
2018-11-03T07:36:33.746Z,11.70
2018-11-03T07:39:02.375Z,21.93
2018-11-03T07:41:31.072Z,14.23
2018-11-03T07:43:59.471Z,13.00
2018-11-03T07:46:27.840Z,13.73
2018-11-03T07:48:56.397Z,14.17
2018-11-03T07:51:24.627Z,15.03
2018-11-03T07:53:53.065Z,12.17
2018-11-03T07:56:21.530Z,13.80
2018-11-03T07:58:49.936Z,11.93
2018-11-03T08:01:18.492Z,12.80
2018-11-03T08:03:46.895Z,14.17
2018-11-03T08:06:15.407Z,13.73
2018-11-03T08:08:43.904Z,13.13
2018-11-03T08:11:12.426Z,14.07
2018-11-03T08:13:41.000Z,13.90
2018-11-03T08:16:09.401Z,12.73
2018-11-03T08:18:38.198Z,13.90
2018-11-03T08:21:06.875Z,18.47
2018-11-03T08:23:35.381Z,15.00
2018-11-03T08:26:03.776Z,13.83
2018-11-03T08:28:32.600Z,13.33
2018-11-03T08:31:01.095Z,14.30
2018-11-03T08:33:29.502Z,14.70
2018-11-03T08:35:58.080Z,14.60
2018-11-03T08:38:26.570Z,14.13
2018-11-03T08:40:55.151Z,14.40
2018-11-03T08:43:23.800Z,13.70
2018-11-03T08:45:52.191Z,14.67
2018-11-03T08:48:21.370Z,13.93
2018-11-03T08:50:49.717Z,14.87
2018-11-03T08:53:18.109Z,15.53
2018-11-03T08:55:46.461Z,16.77
2018-11-03T08:58:14.887Z,15.60
2018-11-03T09:00:43.230Z,17.07
2018-11-03T09:03:11.684Z,15.27
2018-11-03T09:05:40.181Z,17.50
2018-11-03T09:08:09.583Z,16.13
2018-11-03T09:10:37.991Z,19.83
2018-11-03T09:13:06.479Z,21.43
2018-11-03T09:15:34.966Z,20.37
2018-11-03T09:18:03.411Z,18.03
2018-11-03T09:20:31.892Z,18.20
2018-11-03T09:23:00.293Z,18.27
2018-11-03T09:25:28.837Z,18.03
2018-11-03T09:27:57.239Z,18.17
2018-11-03T09:30:25.684Z,19.00
2018-11-03T09:32:54.022Z,18.10
2018-11-03T09:35:22.460Z,17.67
2018-11-03T09:37:50.873Z,18.23
2018-11-03T09:40:19.268Z,17.83
2018-11-03T09:42:48.424Z,17.80
2018-11-03T09:45:16.818Z,18.67
2018-11-03T09:47:45.641Z,18.77
2018-11-03T09:50:15.275Z,18.87
2018-11-03T09:52:44.290Z,18.33
2018-11-03T09:55:17.398Z,18.53
2018-11-03T09:57:45.724Z,19.37
2018-11-03T10:00:15.536Z,18.87
2018-11-03T10:02:44.226Z,19.20
2018-11-03T10:05:13.489Z,18.97
2018-11-03T10:07:41.867Z,19.87
2018-11-03T10:10:19.133Z,20.40
2018-11-03T10:12:47.527Z,18.97
2018-11-03T10:15:17.479Z,19.00
2018-11-03T10:17:46.869Z,19.03
2018-11-03T10:20:15.236Z,18.20
2018-11-03T10:22:43.541Z,19.40
2018-11-03T10:25:17.830Z,18.40
2018-11-03T10:27:46.809Z,18.73
2018-11-03T10:30:16.401Z,18.93
2018-11-03T10:32:45.156Z,17.20
2018-11-03T10:35:14.250Z,18.07
2018-11-03T10:37:43.107Z,18.43
2018-11-03T10:40:13.780Z,18.90
2018-11-03T10:42:42.742Z,17.73
2018-11-03T10:45:12.860Z,17.73
2018-11-03T10:47:41.922Z,19.33
2018-11-03T10:50:12.577Z,18.03
2018-11-03T10:52:42.285Z,18.93
2018-11-03T10:55:12.487Z,19.53
2018-11-03T10:57:41.218Z,18.73
2018-11-03T11:00:19.303Z,18.93
2018-11-03T11:02:53.643Z,19.80
2018-11-03T11:05:27.736Z,19.13
2018-11-03T11:08:01.480Z,18.77
2018-11-03T11:10:35.207Z,19.60
2018-11-03T11:13:38.754Z,17.60
2018-11-03T11:16:07.621Z,17.57
2018-11-03T11:18:35.988Z,18.83
2018-11-03T11:21:04.509Z,18.90
2018-11-03T11:23:33.078Z,17.93
2018-11-03T11:26:01.537Z,17.50
2018-11-03T11:28:30.115Z,16.60
2018-11-03T11:30:58.721Z,17.90
2018-11-03T11:33:27.226Z,18.00
2018-11-03T11:35:55.766Z,20.83
2018-11-03T11:38:24.204Z,23.63
2018-11-03T11:40:52.708Z,26.63
2018-11-03T11:43:21.179Z,18.03
2018-11-03T11:45:49.392Z,19.00
2018-11-03T11:48:17.673Z,18.83
2018-11-03T11:50:45.980Z,18.40
2018-11-03T11:53:14.353Z,17.60
2018-11-03T11:55:42.673Z,17.07
2018-11-03T11:58:10.977Z,17.23
2018-11-03T12:00:39.446Z,17.70
2018-11-03T12:03:07.652Z,19.13
2018-11-03T12:05:35.973Z,18.60
2018-11-03T12:08:04.441Z,17.87
2018-11-03T12:10:32.892Z,18.17
2018-11-03T12:13:01.242Z,16.53
2018-11-03T12:15:29.679Z,17.93
2018-11-03T12:17:58.002Z,17.13
2018-11-03T12:20:26.321Z,16.93
2018-11-03T12:22:54.712Z,17.57
2018-11-03T12:25:23.128Z,17.83
2018-11-03T12:27:52.261Z,18.17
2018-11-03T12:30:20.885Z,17.13
2018-11-03T12:32:49.166Z,18.03
2018-11-03T12:35:17.538Z,16.97
2018-11-03T12:37:46.118Z,16.03
2018-11-03T12:40:15.416Z,17.17
2018-11-03T12:42:43.788Z,17.80
2018-11-03T12:45:13.215Z,16.80
2018-11-03T12:47:42.012Z,17.33
2018-11-03T12:50:12.134Z,18.33
2018-11-03T12:52:40.621Z,16.53
2018-11-03T12:55:10.090Z,17.10
2018-11-03T12:57:38.870Z,17.20
2018-11-03T13:00:09.933Z,18.00
2018-11-03T13:02:38.999Z,17.77
2018-11-03T13:05:10.691Z,17.10
2018-11-03T13:07:40.034Z,16.93
2018-11-03T13:10:10.402Z,16.10
2018-11-03T13:12:39.808Z,16.90
2018-11-03T13:15:09.352Z,17.23
2018-11-03T13:17:38.051Z,17.07
2018-11-03T13:20:07.832Z,17.47
2018-11-03T13:22:36.609Z,17.27
2018-11-03T13:25:05.901Z,17.10
2018-11-03T13:27:34.450Z,16.70
2018-11-03T13:30:03.285Z,17.57
2018-11-03T13:32:31.774Z,16.70
2018-11-03T13:35:00.571Z,17.00
2018-11-03T13:37:28.925Z,18.83
2018-11-03T13:39:57.494Z,17.93
2018-11-03T13:42:25.849Z,16.97
2018-11-03T13:44:54.451Z,17.17
2018-11-03T13:47:23.009Z,17.13
2018-11-03T13:49:51.415Z,17.47
2018-11-03T13:52:19.871Z,16.00
2018-11-03T13:54:48.356Z,17.53
2018-11-03T13:57:16.959Z,19.13
2018-11-03T13:59:45.612Z,18.17
2018-11-03T14:02:14.123Z,17.77
2018-11-03T14:04:42.565Z,17.40
2018-11-03T14:07:11.007Z,17.03
2018-11-03T14:09:41.589Z,18.57
2018-11-03T14:12:10.074Z,19.17
2018-11-03T14:14:39.573Z,19.03
2018-11-03T14:17:08.149Z,18.90
2018-11-03T14:19:36.662Z,18.87
2018-11-03T14:22:05.372Z,20.37
2018-11-03T14:24:34.072Z,18.63
2018-11-03T14:27:03.510Z,19.33
2018-11-03T14:29:32.012Z,20.37
2018-11-03T14:32:00.475Z,19.80
2018-11-03T14:34:29.023Z,18.90
2018-11-03T14:36:57.561Z,19.67
2018-11-03T14:39:27.377Z,66.47
2018-11-03T14:41:55.892Z,24.60
2018-11-03T14:44:24.390Z,19.53
2018-11-03T14:46:52.851Z,19.57
2018-11-03T14:49:21.280Z,20.23
2018-11-03T14:51:49.777Z,20.17
2018-11-03T14:54:18.255Z,22.27
2018-11-03T14:56:46.725Z,20.57
2018-11-03T14:59:15.134Z,21.00
2018-11-03T15:01:44.065Z,22.17
2018-11-03T15:04:12.793Z,20.60
2018-11-03T15:06:41.554Z,20.63
2018-11-03T15:09:10.154Z,21.00
2018-11-03T15:11:39.720Z,24.77
2018-11-03T15:14:09.615Z,21.63
2018-11-03T15:16:38.495Z,21.13
2018-11-03T15:19:07.321Z,30.07
2018-11-03T15:21:35.853Z,23.67
2018-11-03T15:24:05.311Z,21.53
2018-11-03T15:26:33.740Z,22.00
2018-11-03T15:29:02.158Z,20.87
2018-11-03T15:31:30.776Z,21.70
2018-11-03T15:33:59.258Z,21.03
2018-11-03T15:36:27.772Z,21.77
2018-11-03T15:38:56.178Z,21.83
2018-11-03T15:41:24.680Z,21.23
2018-11-03T15:43:53.105Z,21.00
2018-11-03T15:46:21.744Z,20.53
2018-11-03T15:48:52.489Z,20.73
2018-11-03T15:51:20.971Z,21.13
2018-11-03T15:56:27.868Z,25.90
2018-11-03T15:58:56.468Z,28.83
2018-11-03T16:01:24.999Z,23.77
2018-11-03T16:03:53.714Z,23.50
2018-11-03T16:06:25.041Z,22.87
2018-11-03T16:08:53.815Z,22.67
2018-11-03T16:11:22.318Z,22.70
2018-11-03T16:13:50.794Z,21.67
2018-11-03T16:16:19.276Z,23.13
2018-11-03T16:18:48.082Z,22.40
2018-11-03T16:21:16.688Z,22.23
2018-11-03T16:23:45.360Z,22.53
2018-11-03T16:26:14.102Z,22.63
2018-11-03T16:28:42.662Z,22.60
2018-11-03T16:31:11.172Z,23.97
2018-11-03T16:33:39.662Z,24.50
2018-11-03T16:36:08.341Z,24.80
2018-11-03T16:38:36.850Z,24.13
2018-11-03T16:41:05.498Z,27.47
2018-11-03T16:43:34.124Z,26.43
2018-11-03T16:46:02.881Z,24.23
2018-11-03T16:48:31.258Z,27.13
2018-11-03T16:50:59.932Z,25.87
2018-11-03T16:53:28.647Z,26.87
2018-11-03T16:55:57.331Z,28.13
2018-11-03T16:58:26.059Z,28.10
2018-11-03T17:00:54.468Z,27.70
2018-11-03T17:03:22.880Z,26.83
2018-11-03T17:05:51.372Z,28.50
2018-11-03T17:08:20.269Z,28.53
2018-11-03T17:10:48.778Z,27.63
2018-11-03T17:13:17.324Z,30.13
2018-11-03T17:15:45.851Z,27.77
2018-11-03T17:18:14.276Z,28.40
2018-11-03T17:20:42.744Z,26.93
2018-11-03T17:23:11.483Z,28.80
2018-11-03T17:25:39.963Z,28.23
2018-11-03T17:28:09.465Z,27.87
2018-11-03T17:30:37.979Z,28.43
2018-11-03T17:33:06.496Z,27.90
2018-11-03T17:35:35.273Z,28.10
2018-11-03T17:38:03.775Z,29.30
2018-11-03T17:40:32.252Z,30.10
2018-11-03T17:43:00.971Z,31.57
2018-11-03T17:45:29.432Z,29.30
2018-11-03T17:47:57.973Z,30.53
2018-11-03T17:50:26.426Z,31.27
2018-11-03T17:52:55.264Z,30.07
2018-11-03T17:55:23.705Z,30.97
2018-11-03T17:57:52.870Z,29.57
2018-11-03T18:00:24.139Z,30.37
2018-11-03T18:02:52.507Z,27.67
2018-11-03T18:05:20.992Z,32.00
2018-11-03T18:07:49.522Z,31.57
2018-11-03T18:10:18.033Z,32.13
2018-11-03T18:12:46.538Z,31.63
2018-11-03T18:15:15.077Z,32.20
2018-11-03T18:17:43.564Z,32.87
2018-11-03T18:20:12.371Z,31.30
2018-11-03T18:22:41.193Z,32.80
2018-11-03T18:25:09.927Z,32.10
2018-11-03T18:27:38.748Z,34.23
2018-11-03T18:30:08.930Z,32.67
2018-11-03T18:32:37.764Z,32.07
2018-11-03T18:35:06.585Z,31.30
2018-11-03T18:37:35.087Z,32.53
2018-11-03T18:40:04.873Z,33.23
2018-11-03T18:42:33.471Z,33.10
2018-11-03T18:45:02.033Z,30.23
2018-11-03T18:47:30.564Z,32.77
2018-11-03T18:49:58.987Z,34.47
2018-11-03T18:52:27.757Z,33.07
2018-11-03T18:54:56.306Z,31.40
2018-11-03T18:57:24.820Z,31.63
2018-11-03T18:59:53.271Z,31.20
2018-11-03T19:02:21.810Z,32.90
2018-11-03T19:04:50.261Z,34.67
2018-11-03T19:07:19.215Z,31.73
2018-11-03T19:09:47.849Z,34.20
2018-11-03T19:12:16.322Z,34.10
2018-11-03T19:14:44.789Z,35.33
2018-11-03T19:17:13.477Z,35.20
2018-11-03T19:19:42.214Z,35.13
2018-11-03T19:22:10.654Z,34.10
2018-11-03T19:27:07.713Z,34.80
2018-11-03T19:29:36.282Z,33.23
2018-11-03T19:32:04.713Z,33.80
2018-11-03T19:34:33.273Z,32.73
2018-11-03T19:37:01.734Z,34.87
2018-11-03T19:39:30.108Z,36.60
2018-11-03T19:41:59.001Z,34.53
2018-11-03T19:44:27.512Z,33.20
2018-11-03T19:46:56.546Z,33.83
2018-11-03T19:49:25.068Z,34.90
2018-11-03T19:51:53.591Z,35.43
2018-11-03T19:54:21.979Z,34.77
2018-11-03T19:56:50.760Z,37.70
2018-11-03T19:59:19.281Z,35.63
2018-11-03T20:01:47.671Z,37.47
2018-11-03T20:04:16.149Z,35.07
2018-11-03T20:06:44.508Z,37.57
2018-11-03T20:09:12.956Z,37.63
2018-11-03T20:11:41.386Z,38.03
2018-11-03T20:14:09.987Z,35.57
2018-11-03T20:16:38.344Z,38.17
2018-11-03T20:19:06.821Z,38.33
2018-11-03T20:21:35.259Z,38.57
2018-11-03T20:24:05.120Z,36.70
2018-11-03T20:26:33.486Z,36.07
2018-11-03T20:29:01.969Z,35.60
2018-11-03T20:31:30.661Z,33.60
2018-11-03T20:33:59.113Z,34.53
2018-11-03T20:36:27.648Z,37.70
2018-11-03T20:38:56.066Z,37.43
2018-11-03T20:41:26.300Z,36.43
2018-11-03T20:43:54.925Z,35.17
2018-11-03T20:46:23.523Z,38.07
2018-11-03T20:48:52.079Z,36.20
2018-11-03T20:51:20.704Z,36.77
2018-11-03T20:53:49.623Z,37.40
2018-11-03T20:56:19.086Z,37.13
2018-11-03T20:58:47.612Z,40.47
2018-11-03T21:01:16.447Z,36.80
2018-11-03T21:03:45.264Z,39.57
2018-11-03T21:06:13.949Z,38.10
2018-11-03T21:08:42.392Z,39.13
2018-11-03T21:11:11.009Z,39.70
2018-11-03T21:13:39.678Z,41.17
2018-11-03T21:16:08.594Z,43.00
2018-11-03T21:18:37.387Z,42.17
2018-11-03T21:21:05.858Z,41.43
2018-11-03T21:23:34.305Z,41.53
2018-11-03T21:26:02.689Z,41.57
2018-11-03T21:28:31.398Z,39.97
2018-11-03T21:30:59.771Z,42.53
2018-11-03T21:33:28.153Z,41.00
2018-11-03T21:35:56.629Z,39.33
2018-11-03T21:38:25.020Z,40.87
2018-11-03T21:40:53.411Z,41.70
2018-11-03T21:43:21.811Z,39.30
2018-11-03T21:45:50.208Z,40.03
2018-11-03T21:48:18.621Z,42.67
2018-11-03T21:50:47.072Z,42.93
2018-11-03T21:53:15.445Z,40.43
2018-11-03T21:55:44.049Z,39.87
2018-11-03T21:58:12.519Z,41.13
2018-11-03T22:00:40.891Z,42.17
2018-11-03T22:03:09.279Z,41.33
2018-11-03T22:05:37.645Z,41.57
2018-11-03T22:08:06.030Z,40.93
2018-11-03T22:10:34.414Z,40.30
2018-11-03T22:13:02.793Z,39.17
2018-11-03T22:15:31.178Z,38.00
2018-11-03T22:17:59.541Z,40.83
2018-11-03T22:20:27.924Z,39.63
2018-11-03T22:22:56.304Z,39.50
2018-11-03T22:25:24.743Z,40.20
2018-11-03T22:27:53.198Z,39.27
2018-11-03T22:30:21.596Z,41.20
2018-11-03T22:32:49.988Z,39.57
2018-11-03T22:35:18.399Z,40.10
2018-11-03T22:37:47.907Z,41.20
2018-11-03T22:40:16.476Z,39.67
2018-11-03T22:42:44.838Z,40.07
2018-11-03T22:45:13.232Z,41.67
2018-11-03T22:47:41.642Z,40.23
2018-11-03T22:50:10.105Z,42.57
2018-11-03T22:52:38.527Z,41.60
2018-11-03T22:55:07.307Z,42.77
2018-11-03T22:57:35.706Z,42.50
2018-11-03T23:00:04.601Z,41.10
2018-11-03T23:02:32.982Z,39.60
2018-11-03T23:05:01.382Z,40.87
2018-11-03T23:07:29.784Z,39.50
2018-11-03T23:09:58.226Z,41.23
2018-11-03T23:12:27.050Z,41.73
2018-11-03T23:14:55.438Z,42.47
2018-11-03T23:17:30.746Z,41.27
2018-11-03T23:19:59.372Z,40.40
2018-11-03T23:22:27.899Z,40.50
2018-11-03T23:24:56.518Z,40.33
2018-11-03T23:27:24.958Z,41.73
2018-11-03T23:29:53.653Z,41.40
2018-11-03T23:32:21.859Z,41.97
2018-11-03T23:34:52.554Z,42.87
2018-11-03T23:37:21.111Z,43.90
2018-11-03T23:39:49.570Z,40.50
2018-11-03T23:42:17.983Z,43.80
2018-11-03T23:44:46.540Z,43.47
2018-11-03T23:47:14.941Z,43.33
2018-11-03T23:49:43.314Z,42.83
2018-11-03T23:52:11.720Z,41.00
2018-11-03T23:54:40.125Z,44.53
2018-11-03T23:57:08.587Z,43.67
2018-11-03T23:59:37.125Z,43.93
